Pays
Station

 

Conditions  météo  pour  Guantanamo, Oriente  -  Cuba    Cuba

  
26 °C
    
 
 

METAR pour Guantanamo, Oriente :

MUGM 180856Z 32007KT 9999 FEW030 BKN250 26/23 A3000 RMK SLP157 T02610233 56008

 

Voici le bulletin pour Guantanamo, Oriente - Cuba.
 
Le bulletin a été fait il y a 15 minutes, à 08:56 UTC .
Le vent soufflait à la vitesse de 3.6 mètres par seconde de Nord-ouest (320°).
 
La température était de 26 °C, avec un point de rosée à 23 °C.
La température ressentie était de 28 °C.
 
La pression atmosphérique était de 1016 hPa.
L'humidité relative était de 83.6%.
 
Il y avait 1 à 2/8ème de nébulosité à une hauteur de 914 mètres et 5 à 7/8ème de nébulosité à une hauteur de 7620 mètres.
 
La visibilité globale était de supérieure à 10 kilomètres.
 

 
 
 

Pays :   A   B   C   D   E   F   G   H   I   J   K   L   M   N   O   P   Q   R   S   T   U   V   W   Y   Z

 

Partenaires :  Info Météo avec Met'info
Météo Marine avec MeteoMarine.net
Infos Site  |  Infos Légales  |  Crédits  |  Confidentialité
Contactez-nous  |  Ajouter aux favoris
© 2013-2019 METAR - Tous droits réservés